createdAt,value
2018-09-23T00:01:13.243Z,0.60
2018-09-23T00:03:40.320Z,0.60
2018-09-23T00:06:07.411Z,0.70
2018-09-23T00:08:34.619Z,0.70
2018-09-23T00:11:01.752Z,0.60
2018-09-23T00:13:28.827Z,0.70
2018-09-23T00:15:55.945Z,0.63
2018-09-23T00:18:23.043Z,0.70
2018-09-23T00:20:50.151Z,0.80
2018-09-23T00:23:17.251Z,0.70
2018-09-23T00:25:44.347Z,0.50
2018-09-23T00:28:11.455Z,0.80
2018-09-23T00:30:38.567Z,0.90
2018-09-23T00:33:05.655Z,0.50
2018-09-23T00:35:32.769Z,0.60
2018-09-23T00:37:59.847Z,0.70
2018-09-23T00:40:26.996Z,0.40
2018-09-23T00:42:54.094Z,0.60
2018-09-23T00:45:21.187Z,0.70
2018-09-23T00:47:48.318Z,0.70
2018-09-23T00:50:15.415Z,0.70
2018-09-23T00:52:42.547Z,0.77
2018-09-23T00:55:09.666Z,0.70
2018-09-23T00:57:36.771Z,0.60
2018-09-23T01:00:04.821Z,0.67
2018-09-23T01:02:31.936Z,0.50
2018-09-23T01:04:59.015Z,0.50
2018-09-23T01:07:26.108Z,0.70
2018-09-23T01:09:53.215Z,0.60
2018-09-23T01:12:20.303Z,0.60
2018-09-23T01:14:47.389Z,0.60
2018-09-23T01:17:14.768Z,0.80
2018-09-23T01:19:41.863Z,0.50
2018-09-23T01:22:08.966Z,0.57
2018-09-23T01:24:36.056Z,0.70
2018-09-23T01:27:03.163Z,0.73
2018-09-23T01:29:30.251Z,0.77
2018-09-23T01:31:57.351Z,0.70
2018-09-23T01:34:24.427Z,0.77
2018-09-23T01:36:51.668Z,0.40
2018-09-23T01:39:18.776Z,0.60
2018-09-23T01:41:45.879Z,0.70
2018-09-23T01:44:12.960Z,0.50
2018-09-23T01:46:40.068Z,0.80
2018-09-23T01:49:07.167Z,0.40
2018-09-23T01:51:34.260Z,0.40
2018-09-23T01:54:01.364Z,0.80
2018-09-23T01:56:28.460Z,0.50
2018-09-23T01:58:55.538Z,0.50
2018-09-23T02:01:22.639Z,0.70
2018-09-23T02:03:49.802Z,0.60
2018-09-23T02:06:16.916Z,0.47
2018-09-23T02:08:43.998Z,0.57
2018-09-23T02:11:11.120Z,0.50
2018-09-23T02:13:38.223Z,0.90
2018-09-23T02:16:05.848Z,0.70
2018-09-23T02:18:32.928Z,0.40
2018-09-23T02:21:00.178Z,0.60
2018-09-23T02:23:27.293Z,0.50
2018-09-23T02:25:54.370Z,0.63
2018-09-23T02:28:21.447Z,0.30
2018-09-23T02:30:48.535Z,0.67
2018-09-23T02:33:15.615Z,0.47
2018-09-23T02:35:43.558Z,0.40
2018-09-23T02:38:10.659Z,0.60
2018-09-23T02:40:37.759Z,0.60
2018-09-23T02:43:04.876Z,0.50
2018-09-23T02:45:32.032Z,0.50
2018-09-23T02:47:59.104Z,0.30
2018-09-23T02:50:26.211Z,0.50
2018-09-23T02:52:53.976Z,0.60
2018-09-23T02:55:21.092Z,0.60
2018-09-23T02:57:48.211Z,0.70
2018-09-23T03:00:15.284Z,0.50
2018-09-23T03:02:42.383Z,0.40
2018-09-23T03:05:09.487Z,0.43
2018-09-23T03:07:36.593Z,0.50
2018-09-23T03:10:03.763Z,0.40
2018-09-23T03:12:30.857Z,0.30
2018-09-23T03:14:57.972Z,0.50
2018-09-23T03:17:25.067Z,0.60
2018-09-23T03:19:52.184Z,0.40
2018-09-23T03:22:19.295Z,0.50
2018-09-23T03:24:46.423Z,0.50
2018-09-23T03:27:13.490Z,0.40
2018-09-23T03:29:40.579Z,0.60
2018-09-23T03:32:07.673Z,0.40
2018-09-23T03:34:34.783Z,0.30
2018-09-23T03:37:01.919Z,0.40
2018-09-23T03:39:29.012Z,0.50
2018-09-23T03:41:56.093Z,0.60
2018-09-23T03:44:23.195Z,0.57
2018-09-23T03:46:50.328Z,0.43
2018-09-23T03:49:17.431Z,0.40
2018-09-23T03:51:44.517Z,0.30
2018-09-23T03:54:12.771Z,0.40
2018-09-23T03:56:40.504Z,0.30
2018-09-23T03:59:07.614Z,0.40
2018-09-23T04:01:34.705Z,0.50
2018-09-23T04:04:01.808Z,0.30
2018-09-23T04:06:28.874Z,0.60
2018-09-23T04:08:55.949Z,0.23
2018-09-23T04:11:23.036Z,0.50
2018-09-23T04:13:50.120Z,0.30
2018-09-23T04:16:17.222Z,0.40
2018-09-23T04:18:44.306Z,0.30
2018-09-23T04:21:11.400Z,0.33
2018-09-23T04:23:38.468Z,0.53
2018-09-23T04:26:05.624Z,0.50
2018-09-23T04:28:32.694Z,0.40
2018-09-23T04:30:59.789Z,0.40
2018-09-23T04:33:26.899Z,0.50
2018-09-23T04:35:54.006Z,0.50
2018-09-23T04:38:21.108Z,0.50
2018-09-23T04:40:48.207Z,0.50
2018-09-23T04:43:15.307Z,0.53
2018-09-23T04:45:42.399Z,0.40
2018-09-23T04:48:09.490Z,0.40
2018-09-23T04:50:36.567Z,0.60
2018-09-23T04:53:03.719Z,0.50
2018-09-23T04:55:30.806Z,0.60
2018-09-23T04:57:57.915Z,0.53
2018-09-23T05:00:25.004Z,0.80
2018-09-23T05:02:52.150Z,0.40
2018-09-23T05:05:19.463Z,0.60
2018-09-23T05:07:46.571Z,0.40
2018-09-23T05:10:13.985Z,0.43
2018-09-23T05:12:41.064Z,0.50
2018-09-23T05:15:08.189Z,0.47
2018-09-23T05:17:35.356Z,0.40
2018-09-23T05:20:02.445Z,0.33
2018-09-23T05:22:29.556Z,0.40
2018-09-23T05:24:56.687Z,0.50
2018-09-23T05:27:23.780Z,0.50
2018-09-23T05:29:50.911Z,0.40
2018-09-23T05:32:18.043Z,0.33
2018-09-23T05:34:45.136Z,0.30
2018-09-23T05:37:12.230Z,0.50
2018-09-23T05:39:39.342Z,0.30
2018-09-23T05:42:06.448Z,0.60
2018-09-23T05:44:33.550Z,0.60
2018-09-23T05:47:00.648Z,0.57
2018-09-23T05:49:27.708Z,0.40
2018-09-23T05:51:54.804Z,0.70
2018-09-23T05:54:21.885Z,0.30
2018-09-23T05:56:48.975Z,0.40
2018-09-23T05:59:16.055Z,0.40
2018-09-23T06:01:43.151Z,0.30
2018-09-23T06:04:10.250Z,0.43
2018-09-23T06:06:37.529Z,0.30
2018-09-23T06:09:05.316Z,0.30
2018-09-23T06:11:32.409Z,0.30
2018-09-23T06:13:59.491Z,0.60
2018-09-23T06:16:26.576Z,0.43
2018-09-23T06:18:53.675Z,0.43
2018-09-23T06:21:20.791Z,0.30
2018-09-23T06:23:47.900Z,0.40
2018-09-23T06:26:14.997Z,0.60
2018-09-23T06:28:42.103Z,0.60
2018-09-23T06:31:09.177Z,0.57
2018-09-23T06:33:36.260Z,0.47
2018-09-23T06:36:03.363Z,0.50
2018-09-23T06:38:30.529Z,0.57
2018-09-23T06:40:57.588Z,0.43
2018-09-23T06:43:24.659Z,0.40
2018-09-23T06:45:51.802Z,0.40
2018-09-23T06:48:18.997Z,0.50
2018-09-23T06:50:46.111Z,0.40
2018-09-23T06:53:13.205Z,0.60
2018-09-23T06:55:40.291Z,0.40
2018-09-23T06:58:07.418Z,0.40
2018-09-23T07:00:34.516Z,0.30
2018-09-23T07:03:01.633Z,0.73
2018-09-23T07:05:28.712Z,0.50
2018-09-23T07:07:55.803Z,0.43
2018-09-23T07:10:22.943Z,0.30
2018-09-23T07:12:49.988Z,0.40
2018-09-23T07:15:17.060Z,0.37
2018-09-23T07:17:44.135Z,0.57
2018-09-23T07:20:11.263Z,0.50
2018-09-23T07:22:38.355Z,0.50
2018-09-23T07:25:05.662Z,0.60
2018-09-23T07:27:32.792Z,0.30
2018-09-23T07:29:59.955Z,0.43
2018-09-23T07:32:27.197Z,0.50
2018-09-23T07:34:54.315Z,0.40
2018-09-23T07:37:21.428Z,0.40
2018-09-23T07:39:48.590Z,0.60
2018-09-23T07:42:15.695Z,0.40
2018-09-23T07:44:42.803Z,0.53
2018-09-23T07:47:09.911Z,0.40
2018-09-23T07:49:37.001Z,0.30
2018-09-23T07:52:04.100Z,0.50
2018-09-23T07:54:31.195Z,0.40
2018-09-23T07:56:58.254Z,0.40
2018-09-23T07:59:25.339Z,0.70
2018-09-23T08:01:52.416Z,0.40
2018-09-23T08:04:19.582Z,0.53
2018-09-23T08:06:46.628Z,0.40
2018-09-23T08:09:13.714Z,0.50
2018-09-23T08:11:40.812Z,0.50
2018-09-23T08:14:08.560Z,0.40
2018-09-23T08:16:35.277Z,0.60
2018-09-23T08:19:02.371Z,0.40
2018-09-23T08:21:29.468Z,0.40
2018-09-23T08:23:56.659Z,0.40
2018-09-23T08:26:26.207Z,0.40
2018-09-23T08:28:53.282Z,0.37
2018-09-23T08:31:20.376Z,0.40
2018-09-23T08:33:47.462Z,0.40
2018-09-23T08:36:14.544Z,0.77
2018-09-23T08:38:42.056Z,0.50
2018-09-23T08:41:09.136Z,0.50
2018-09-23T08:43:36.235Z,0.30
2018-09-23T08:46:03.351Z,0.50
2018-09-23T08:48:30.438Z,0.50
2018-09-23T08:50:57.543Z,0.30
2018-09-23T08:53:24.648Z,0.30
2018-09-23T08:55:51.732Z,0.33
2018-09-23T08:58:18.834Z,0.67
2018-09-23T09:00:45.916Z,0.50
2018-09-23T09:03:13.008Z,0.50
2018-09-23T09:05:40.119Z,0.50
2018-09-23T09:08:07.220Z,0.40
2018-09-23T09:10:34.344Z,0.47
2018-09-23T09:13:01.455Z,0.40
2018-09-23T09:15:28.539Z,0.30
2018-09-23T09:17:55.692Z,0.60
2018-09-23T09:20:22.850Z,0.43
2018-09-23T09:22:49.936Z,0.60
2018-09-23T09:25:17.028Z,0.30
2018-09-23T09:27:44.129Z,0.40
2018-09-23T09:30:11.219Z,0.33
2018-09-23T09:32:38.335Z,0.60
2018-09-23T09:35:05.447Z,0.40
2018-09-23T09:37:32.560Z,0.20
2018-09-23T09:39:59.649Z,0.57
2018-09-23T09:42:26.771Z,0.47
2018-09-23T09:44:53.912Z,0.50
2018-09-23T09:47:21.020Z,0.40
2018-09-23T09:49:48.107Z,0.37
2018-09-23T09:52:15.202Z,0.40
2018-09-23T09:54:42.355Z,0.50
2018-09-23T09:57:09.458Z,0.33
2018-09-23T09:59:36.577Z,0.47
2018-09-23T10:02:03.688Z,0.60
2018-09-23T10:04:30.787Z,0.50
2018-09-23T10:06:57.994Z,0.30
2018-09-23T10:09:25.100Z,0.50
2018-09-23T10:11:52.163Z,0.50
2018-09-23T10:14:19.252Z,0.50
2018-09-23T10:16:46.339Z,0.40
2018-09-23T10:19:13.455Z,0.60
2018-09-23T10:21:40.527Z,0.50
2018-09-23T10:24:07.613Z,0.23
2018-09-23T10:26:34.697Z,0.37
2018-09-23T10:29:01.789Z,0.70
2018-09-23T10:31:28.947Z,0.47
2018-09-23T10:33:56.020Z,0.50
2018-09-23T10:36:23.133Z,0.50
2018-09-23T10:38:50.232Z,0.40
2018-09-23T10:41:17.348Z,0.43
2018-09-23T10:43:44.467Z,0.30
2018-09-23T10:46:11.555Z,0.60
2018-09-23T10:48:38.653Z,0.50
2018-09-23T10:51:05.744Z,0.40
2018-09-23T10:53:32.835Z,0.30
2018-09-23T10:55:59.923Z,0.30
2018-09-23T10:58:27.021Z,0.60
2018-09-23T11:00:54.108Z,0.33
2018-09-23T11:03:21.199Z,0.30
2018-09-23T11:05:48.326Z,0.37
2018-09-23T11:08:15.462Z,0.30
2018-09-23T11:10:42.567Z,0.60
2018-09-23T11:13:09.682Z,0.50
2018-09-23T11:15:36.782Z,0.30
2018-09-23T11:18:03.879Z,0.57
2018-09-23T11:20:30.976Z,0.40
2018-09-23T11:22:58.064Z,0.50
2018-09-23T11:25:25.172Z,0.30
2018-09-23T11:27:52.287Z,0.57
2018-09-23T11:30:19.379Z,0.50
2018-09-23T11:32:46.483Z,0.50
2018-09-23T11:35:13.611Z,0.53
2018-09-23T11:37:40.728Z,0.57
2018-09-23T11:40:08.183Z,0.63
2018-09-23T11:42:36.637Z,0.50
2018-09-23T11:45:03.775Z,0.30
2018-09-23T11:47:30.916Z,0.47
2018-09-23T11:49:58.115Z,0.50
2018-09-23T11:52:25.224Z,0.30
2018-09-23T11:54:52.340Z,0.30
2018-09-23T11:57:19.446Z,0.30
2018-09-23T11:59:46.783Z,0.50
2018-09-23T12:02:13.985Z,0.40
2018-09-23T12:04:41.031Z,0.50
2018-09-23T12:07:08.107Z,0.67
2018-09-23T12:09:35.196Z,0.60
2018-09-23T12:12:02.291Z,0.40
2018-09-23T12:14:29.396Z,0.50
2018-09-23T12:16:56.484Z,0.43
2018-09-23T12:19:23.594Z,0.30
2018-09-23T12:21:50.691Z,0.60
2018-09-23T12:24:17.804Z,0.40
2018-09-23T12:26:44.903Z,0.30
2018-09-23T12:29:12.002Z,0.50
2018-09-23T12:31:39.112Z,0.50
2018-09-23T12:34:06.204Z,0.50
2018-09-23T12:36:33.644Z,0.47
2018-09-23T12:39:00.743Z,0.30
2018-09-23T12:41:27.867Z,0.40
2018-09-23T12:43:54.946Z,0.30
2018-09-23T12:46:22.052Z,0.50
2018-09-23T12:48:49.144Z,0.40
2018-09-23T12:51:16.260Z,0.50
2018-09-23T12:53:43.380Z,0.40
2018-09-23T12:56:10.491Z,0.40
2018-09-23T12:58:37.570Z,0.60
2018-09-23T13:01:04.688Z,0.30
2018-09-23T13:03:31.791Z,0.50
2018-09-23T13:05:58.912Z,0.63
2018-09-23T13:08:26.015Z,0.50
2018-09-23T13:10:53.130Z,0.40
2018-09-23T13:13:20.248Z,0.30
2018-09-23T13:15:47.327Z,0.40
2018-09-23T13:18:14.576Z,0.50
2018-09-23T13:20:41.560Z,0.60
2018-09-23T13:23:08.874Z,0.60
2018-09-23T13:25:36.000Z,0.50
2018-09-23T13:28:03.093Z,0.70
2018-09-23T13:30:30.176Z,0.40
2018-09-23T13:32:57.283Z,0.50
2018-09-23T13:35:24.367Z,0.47
2018-09-23T13:37:51.459Z,0.50
2018-09-23T13:40:18.564Z,0.60
2018-09-23T13:42:45.676Z,0.50
2018-09-23T13:45:12.768Z,0.47
2018-09-23T13:47:39.895Z,0.60
2018-09-23T13:50:06.986Z,0.30
2018-09-23T13:52:34.383Z,0.73
2018-09-23T13:55:01.483Z,0.40
2018-09-23T13:57:28.600Z,0.70
2018-09-23T13:59:55.680Z,0.57
2018-09-23T14:02:22.803Z,0.50
2018-09-23T14:04:49.927Z,0.50
2018-09-23T14:07:17.019Z,0.60
2018-09-23T14:09:44.283Z,0.80
2018-09-23T14:12:11.439Z,0.40
2018-09-23T14:14:38.511Z,0.60
2018-09-23T14:17:05.752Z,0.57
2018-09-23T14:19:32.862Z,0.50
2018-09-23T14:21:59.948Z,0.60
2018-09-23T14:24:27.040Z,0.80
2018-09-23T14:26:54.164Z,0.60
2018-09-23T14:29:21.268Z,0.40
2018-09-23T14:31:48.379Z,0.70
2018-09-23T14:34:15.519Z,0.43
2018-09-23T14:36:42.627Z,0.67
2018-09-23T14:39:10.507Z,0.70
2018-09-23T14:41:37.606Z,0.60
2018-09-23T14:44:04.747Z,0.67
2018-09-23T14:46:31.903Z,0.77
2018-09-23T14:48:59.067Z,0.63
2018-09-23T14:51:26.129Z,0.80
2018-09-23T14:53:53.224Z,0.67
2018-09-23T14:56:20.339Z,0.70
2018-09-23T14:58:47.459Z,0.73
2018-09-23T15:01:14.574Z,0.57
2018-09-23T15:03:41.697Z,0.70
2018-09-23T15:06:08.791Z,0.70
2018-09-23T15:08:36.212Z,0.60
2018-09-23T15:11:03.319Z,0.80
2018-09-23T15:13:30.423Z,0.80
2018-09-23T15:15:57.535Z,0.70
2018-09-23T15:18:24.639Z,0.50
2018-09-23T15:20:51.746Z,0.60
2018-09-23T15:23:18.869Z,0.70
2018-09-23T15:25:45.980Z,0.63
2018-09-23T15:28:13.080Z,0.57
2018-09-23T15:30:40.196Z,0.70
2018-09-23T15:33:07.306Z,0.50
2018-09-23T15:35:34.418Z,0.43
2018-09-23T15:38:01.548Z,0.40
2018-09-23T15:40:28.639Z,0.70
2018-09-23T15:42:55.732Z,0.60
2018-09-23T15:45:22.823Z,0.70
2018-09-23T15:47:49.921Z,0.50
2018-09-23T15:50:17.044Z,0.50
2018-09-23T15:52:44.175Z,0.70
2018-09-23T15:55:11.283Z,0.60
2018-09-23T15:57:38.428Z,0.50
2018-09-23T16:00:05.576Z,0.50
2018-09-23T16:02:32.684Z,0.90
2018-09-23T16:04:59.772Z,0.80
2018-09-23T16:07:26.886Z,0.80
2018-09-23T16:09:54.003Z,0.60
2018-09-23T16:12:21.116Z,0.87
2018-09-23T16:14:48.244Z,0.80
2018-09-23T16:17:15.388Z,0.73
2018-09-23T16:19:42.465Z,0.90
2018-09-23T16:22:09.566Z,0.70
2018-09-23T16:24:36.668Z,0.90
2018-09-23T16:27:03.757Z,0.90
2018-09-23T16:29:30.862Z,0.63
2018-09-23T16:31:57.998Z,1.00
2018-09-23T16:34:25.104Z,0.70
2018-09-23T16:36:52.531Z,0.70
2018-09-23T16:39:19.607Z,0.90
2018-09-23T16:41:46.707Z,0.60
2018-09-23T16:44:13.811Z,0.93
2018-09-23T16:46:40.903Z,0.80
2018-09-23T16:49:08.016Z,0.80
2018-09-23T16:51:35.127Z,0.80
2018-09-23T16:54:02.216Z,0.80
2018-09-23T16:56:29.480Z,0.90
2018-09-23T16:58:56.607Z,1.00
2018-09-23T17:01:23.723Z,1.07
2018-09-23T17:03:50.874Z,0.80
2018-09-23T17:06:17.964Z,0.70
2018-09-23T17:08:45.072Z,0.80
2018-09-23T17:11:12.275Z,0.83
2018-09-23T17:13:39.346Z,0.63
2018-09-23T17:16:06.580Z,0.90
2018-09-23T17:18:33.664Z,0.70
2018-09-23T17:21:02.448Z,1.10
2018-09-23T17:23:29.547Z,0.87
2018-09-23T17:25:56.635Z,0.87
2018-09-23T17:28:23.822Z,0.87
2018-09-23T17:30:50.936Z,1.10
2018-09-23T17:33:18.024Z,1.07
2018-09-23T17:35:45.125Z,0.90
2018-09-23T17:38:12.207Z,0.90
2018-09-23T17:40:39.345Z,1.00
2018-09-23T17:43:06.435Z,1.00
2018-09-23T17:45:33.528Z,0.80
2018-09-23T17:48:00.619Z,0.97
2018-09-23T17:50:27.826Z,1.00
2018-09-23T17:52:54.918Z,0.97
2018-09-23T17:55:22.068Z,1.00
2018-09-23T17:57:49.287Z,1.00
2018-09-23T18:00:16.394Z,1.20
2018-09-23T18:02:43.512Z,0.80
2018-09-23T18:05:10.607Z,1.10
2018-09-23T18:07:37.707Z,1.10
2018-09-23T18:10:04.799Z,1.30
2018-09-23T18:12:31.896Z,1.10
2018-09-23T18:14:59.017Z,0.90
2018-09-23T18:17:26.119Z,0.90
2018-09-23T18:19:53.215Z,0.80
2018-09-23T18:22:20.319Z,1.20
2018-09-23T18:24:47.434Z,1.37
2018-09-23T18:27:14.523Z,1.03
2018-09-23T18:29:41.679Z,1.07
2018-09-23T18:32:08.815Z,1.10
2018-09-23T18:34:36.034Z,1.00
2018-09-23T18:37:03.167Z,1.00
2018-09-23T18:39:30.268Z,1.30
2018-09-23T18:41:57.383Z,1.13
2018-09-23T18:44:24.498Z,1.07
2018-09-23T18:46:51.603Z,1.13
2018-09-23T18:49:18.696Z,1.30
2018-09-23T18:51:45.811Z,1.07
2018-09-23T18:54:18.751Z,1.13
2018-09-23T18:56:45.875Z,1.50
2018-09-23T18:59:12.996Z,1.03
2018-09-23T19:01:40.087Z,1.30
2018-09-23T19:04:07.185Z,1.00
2018-09-23T19:06:34.289Z,1.07
2018-09-23T19:09:01.576Z,1.17
2018-09-23T19:11:28.696Z,1.27
2018-09-23T19:13:55.791Z,1.03
2018-09-23T19:16:28.924Z,1.00
2018-09-23T19:18:56.819Z,0.90
2018-09-23T19:21:24.532Z,0.90
2018-09-23T19:23:51.623Z,1.10
2018-09-23T19:26:18.723Z,1.03
2018-09-23T19:28:45.835Z,0.90
2018-09-23T19:31:12.943Z,1.30
2018-09-23T19:33:40.024Z,1.17
2018-09-23T19:36:07.136Z,1.17
2018-09-23T19:38:34.472Z,1.10
2018-09-23T19:41:01.553Z,1.10
2018-09-23T19:43:28.668Z,1.00
2018-09-23T19:45:55.760Z,1.00
2018-09-23T19:48:22.875Z,1.00
2018-09-23T19:50:49.988Z,1.00
2018-09-23T19:53:17.083Z,0.97
2018-09-23T19:55:44.210Z,1.20
2018-09-23T19:58:11.299Z,1.00
2018-09-23T20:00:38.403Z,0.80
2018-09-23T20:03:05.519Z,1.07
2018-09-23T20:05:32.624Z,0.80
2018-09-23T20:07:59.728Z,0.80
2018-09-23T20:10:26.811Z,1.10
2018-09-23T20:12:53.918Z,0.93
2018-09-23T20:15:21.088Z,1.00
2018-09-23T20:17:48.174Z,0.83
2018-09-23T20:20:15.287Z,0.80
2018-09-23T20:22:42.562Z,0.87
2018-09-23T20:25:09.909Z,0.80
2018-09-23T20:27:37.003Z,0.93
2018-09-23T20:30:04.608Z,0.90
2018-09-23T20:32:31.691Z,1.10
2018-09-23T20:34:58.835Z,0.80
2018-09-23T20:37:25.923Z,0.90
2018-09-23T20:39:53.027Z,0.90
2018-09-23T20:42:20.132Z,0.73
2018-09-23T20:44:47.267Z,1.10
2018-09-23T20:47:14.364Z,0.93
2018-09-23T20:49:41.462Z,0.80
2018-09-23T20:52:08.573Z,1.10
2018-09-23T20:54:35.659Z,0.90
2018-09-23T20:57:02.721Z,0.77
2018-09-23T20:59:29.804Z,1.07
2018-09-23T21:01:57.020Z,0.87
2018-09-23T21:04:24.511Z,0.90
2018-09-23T21:06:51.603Z,0.87
2018-09-23T21:09:18.708Z,0.80
2018-09-23T21:11:46.507Z,1.07
2018-09-23T21:14:13.599Z,0.90
2018-09-23T21:16:40.691Z,0.80
2018-09-23T21:19:07.781Z,0.70
2018-09-23T21:21:34.875Z,0.70
2018-09-23T21:24:02.047Z,0.70
2018-09-23T21:26:29.152Z,0.70
2018-09-23T21:28:56.264Z,0.60
2018-09-23T21:31:23.374Z,0.80
2018-09-23T21:33:50.504Z,0.80
2018-09-23T21:36:17.699Z,0.80
2018-09-23T21:38:44.799Z,0.60
2018-09-23T21:41:11.887Z,0.70
2018-09-23T21:43:38.966Z,0.53
2018-09-23T21:46:06.863Z,0.80
2018-09-23T21:48:33.960Z,0.87
2018-09-23T21:51:01.061Z,0.50
2018-09-23T21:53:28.135Z,1.00
2018-09-23T21:55:55.256Z,0.80
2018-09-23T21:58:22.339Z,0.50
2018-09-23T22:00:49.443Z,0.70
2018-09-23T22:03:16.625Z,0.57
2018-09-23T22:05:43.661Z,0.63
2018-09-23T22:08:11.500Z,0.60
2018-09-23T22:10:38.591Z,0.80
2018-09-23T22:13:05.949Z,0.73
2018-09-23T22:15:33.043Z,0.70
2018-09-23T22:18:00.123Z,0.77
2018-09-23T22:20:27.227Z,1.10
2018-09-23T22:22:55.065Z,0.50
2018-09-23T22:25:22.595Z,0.70
2018-09-23T22:27:50.039Z,0.60
2018-09-23T22:30:17.234Z,0.67
2018-09-23T22:32:44.252Z,0.40
2018-09-23T22:35:11.331Z,0.80
2018-09-23T22:37:38.435Z,0.80
2018-09-23T22:40:06.187Z,0.70
2018-09-23T22:42:33.300Z,0.70
2018-09-23T22:45:00.389Z,0.50
2018-09-23T22:47:27.646Z,0.77
2018-09-23T22:49:54.747Z,0.70
2018-09-23T22:52:21.859Z,0.40
2018-09-23T22:54:48.952Z,0.60
2018-09-23T22:57:16.350Z,0.60
2018-09-23T22:59:43.455Z,0.57
2018-09-23T23:02:10.518Z,0.60
2018-09-23T23:04:38.185Z,0.50
2018-09-23T23:07:05.240Z,0.47
2018-09-23T23:09:32.541Z,0.70
2018-09-23T23:11:59.635Z,0.70
2018-09-23T23:14:26.752Z,0.50
2018-09-23T23:16:53.859Z,0.70
2018-09-23T23:19:20.976Z,0.70
2018-09-23T23:21:48.085Z,0.40
2018-09-23T23:24:15.200Z,0.60
2018-09-23T23:26:42.312Z,0.53
2018-09-23T23:29:09.433Z,0.67
2018-09-23T23:31:36.528Z,0.57
2018-09-23T23:34:03.602Z,0.87
2018-09-23T23:36:30.715Z,0.50
2018-09-23T23:38:57.795Z,0.40
2018-09-23T23:41:24.868Z,0.60
2018-09-23T23:43:51.960Z,0.50
2018-09-23T23:46:19.081Z,0.57
2018-09-23T23:48:46.172Z,0.60
2018-09-23T23:51:13.275Z,0.60
2018-09-23T23:53:40.520Z,0.67
2018-09-23T23:56:07.611Z,0.60
2018-09-23T23:58:34.826Z,0.50
